sensor_id;sensor_type;location;lat;lon;timestamp;pressure;altitude;pressure_sealevel;temperature;humidity
61113;BME280;47184;57.998;56.184;2022-08-16T00:02:25;101016.00;;;13.22;58.64
61113;BME280;47184;57.998;56.184;2022-08-16T00:04:51;101018.56;;;13.24;58.81
61113;BME280;47184;57.998;56.184;2022-08-16T00:07:17;101064.84;;;13.47;58.75
61113;BME280;47184;57.998;56.184;2022-08-16T00:09:43;101064.69;;;13.49;59.29
61113;BME280;47184;57.998;56.184;2022-08-16T00:12:09;101058.03;;;13.45;59.46
61113;BME280;47184;57.998;56.184;2022-08-16T00:14:36;101061.97;;;13.41;59.67
61113;BME280;47184;57.998;56.184;2022-08-16T00:17:02;100951.78;;;12.57;60.38
61113;BME280;47184;57.998;56.184;2022-08-16T00:19:31;101040.72;;;13.05;61.00
61113;BME280;47184;57.998;56.184;2022-08-16T00:21:58;101026.25;;;12.81;61.29
61113;BME280;47184;57.998;56.184;2022-08-16T00:24:27;101064.88;;;13.02;61.94
61113;BME280;47184;57.998;56.184;2022-08-16T00:26:53;101018.38;;;12.72;61.83
61113;BME280;47184;57.998;56.184;2022-08-16T00:29:20;101074.75;;;13.09;61.91
61113;BME280;47184;57.998;56.184;2022-08-16T00:31:49;101067.31;;;13.13;61.85
61113;BME280;47184;57.998;56.184;2022-08-16T00:34:16;101073.16;;;13.17;61.98
61113;BME280;47184;57.998;56.184;2022-08-16T00:36:42;101066.31;;;13.14;61.93
61113;BME280;47184;57.998;56.184;2022-08-16T00:39:12;101053.78;;;12.98;62.12
61113;BME280;47184;57.998;56.184;2022-08-16T00:41:39;101073.78;;;13.10;62.43
61113;BME280;47184;57.998;56.184;2022-08-16T00:44:06;101004.50;;;12.60;62.42
61113;BME280;47184;57.998;56.184;2022-08-16T00:46:59;101072.41;;;13.06;62.37
61113;BME280;47184;57.998;56.184;2022-08-16T00:49:30;101082.03;;;13.07;62.49
61113;BME280;47184;57.998;56.184;2022-08-16T00:51:56;101075.66;;;13.00;63.09
61113;BME280;47184;57.998;56.184;2022-08-16T00:54:27;101054.97;;;12.86;63.26
61113;BME280;47184;57.998;56.184;2022-08-16T00:56:55;101053.69;;;12.90;63.36
61113;BME280;47184;57.998;56.184;2022-08-16T00:59:24;101059.38;;;12.95;63.22
61113;BME280;47184;57.998;56.184;2022-08-16T01:01:52;101060.88;;;12.98;63.49
61113;BME280;47184;57.998;56.184;2022-08-16T01:04:21;101056.00;;;12.93;63.50
61113;BME280;47184;57.998;56.184;2022-08-16T01:06:49;101061.78;;;12.88;63.99
61113;BME280;47184;57.998;56.184;2022-08-16T01:09:16;101065.91;;;12.73;64.29
61113;BME280;47184;57.998;56.184;2022-08-16T01:11:43;101038.28;;;12.48;64.56
61113;BME280;47184;57.998;56.184;2022-08-16T01:14:18;101053.63;;;12.54;65.18
61113;BME280;47184;57.998;56.184;2022-08-16T01:16:46;101023.47;;;12.28;65.16
61113;BME280;47184;57.998;56.184;2022-08-16T01:19:23;101041.38;;;12.53;64.92
61113;BME280;47184;57.998;56.184;2022-08-16T01:22:07;101026.31;;;12.44;64.89
61113;BME280;47184;57.998;56.184;2022-08-16T01:24:39;101072.53;;;12.87;64.80
61113;BME280;47184;57.998;56.184;2022-08-16T01:29:43;101083.28;;;12.85;64.92
61113;BME280;47184;57.998;56.184;2022-08-16T01:32:11;101079.88;;;12.93;64.63
61113;BME280;47184;57.998;56.184;2022-08-16T01:34:37;101088.25;;;12.98;64.66
61113;BME280;47184;57.998;56.184;2022-08-16T01:37:08;101051.09;;;12.80;64.73
61113;BME280;47184;57.998;56.184;2022-08-16T01:39:35;101084.44;;;13.01;64.40
61113;BME280;47184;57.998;56.184;2022-08-16T01:42:04;101077.09;;;12.95;64.74
61113;BME280;47184;57.998;56.184;2022-08-16T01:44:32;101104.06;;;13.08;64.94
61113;BME280;47184;57.998;56.184;2022-08-16T01:46:58;101099.06;;;13.05;64.90
61113;BME280;47184;57.998;56.184;2022-08-16T01:49:33;101097.84;;;12.99;65.03
61113;BME280;47184;57.998;56.184;2022-08-16T01:52:06;101102.88;;;13.02;64.62
61113;BME280;47184;57.998;56.184;2022-08-16T01:54:52;101105.16;;;13.15;64.31
61113;BME280;47184;57.998;56.184;2022-08-16T01:57:19;101096.69;;;13.29;63.75
61113;BME280;47184;57.998;56.184;2022-08-16T01:59:46;101089.88;;;13.27;63.48
61113;BME280;47184;57.998;56.184;2022-08-16T02:02:16;101085.88;;;13.23;63.69
61113;BME280;47184;57.998;56.184;2022-08-16T02:04:42;101068.22;;;13.04;63.46
61113;BME280;47184;57.998;56.184;2022-08-16T02:07:10;101093.66;;;13.24;63.41
61113;BME280;47184;57.998;56.184;2022-08-16T02:09:39;101060.56;;;13.01;63.37
61113;BME280;47184;57.998;56.184;2022-08-16T02:12:08;101066.78;;;13.09;63.53
61113;BME280;47184;57.998;56.184;2022-08-16T02:14:37;101086.38;;;13.26;63.27
61113;BME280;47184;57.998;56.184;2022-08-16T02:17:06;101069.94;;;13.23;63.46
61113;BME280;47184;57.998;56.184;2022-08-16T02:19:35;101074.00;;;13.17;63.27
61113;BME280;47184;57.998;56.184;2022-08-16T02:22:03;101032.31;;;12.92;63.38
61113;BME280;47184;57.998;56.184;2022-08-16T02:24:30;101051.13;;;13.16;62.98
61113;BME280;47184;57.998;56.184;2022-08-16T02:26:56;101070.41;;;13.36;62.83
61113;BME280;47184;57.998;56.184;2022-08-16T02:29:24;101073.41;;;13.41;62.85
61113;BME280;47184;57.998;56.184;2022-08-16T02:31:50;101101.06;;;13.74;62.29
61113;BME280;47184;57.998;56.184;2022-08-16T02:34:19;101058.25;;;13.51;62.40
61113;BME280;47184;57.998;56.184;2022-08-16T02:36:47;101099.69;;;13.88;62.35
61113;BME280;47184;57.998;56.184;2022-08-16T02:39:15;101055.72;;;13.68;62.05
61113;BME280;47184;57.998;56.184;2022-08-16T02:41:43;101092.25;;;14.00;61.88
61113;BME280;47184;57.998;56.184;2022-08-16T02:44:12;101095.97;;;14.07;61.94
61113;BME280;47184;57.998;56.184;2022-08-16T02:46:41;101056.19;;;13.89;61.98
61113;BME280;47184;57.998;56.184;2022-08-16T02:49:07;101058.16;;;13.87;61.94
61113;BME280;47184;57.998;56.184;2022-08-16T02:51:35;101115.50;;;14.24;61.95
61113;BME280;47184;57.998;56.184;2022-08-16T02:54:03;101081.00;;;14.32;62.06
61113;BME280;47184;57.998;56.184;2022-08-16T02:56:30;101103.56;;;14.54;61.38
61113;BME280;47184;57.998;56.184;2022-08-16T02:58:56;101003.19;;;14.05;60.99
61113;BME280;47184;57.998;56.184;2022-08-16T03:01:26;101093.50;;;14.66;61.42
61113;BME280;47184;57.998;56.184;2022-08-16T03:03:54;101088.53;;;14.71;61.21
61113;BME280;47184;57.998;56.184;2022-08-16T03:06:22;101064.56;;;14.63;60.98
61113;BME280;47184;57.998;56.184;2022-08-16T03:08:52;101089.72;;;14.93;60.48
61113;BME280;47184;57.998;56.184;2022-08-16T03:11:21;101075.13;;;14.97;60.46
61113;BME280;47184;57.998;56.184;2022-08-16T03:13:51;101084.13;;;15.12;60.50
61113;BME280;47184;57.998;56.184;2022-08-16T03:16:20;101080.31;;;15.15;60.42
61113;BME280;47184;57.998;56.184;2022-08-16T03:18:47;101071.00;;;15.10;60.30
61113;BME280;47184;57.998;56.184;2022-08-16T03:21:14;101060.69;;;15.07;59.91
61113;BME280;47184;57.998;56.184;2022-08-16T03:23:41;101096.97;;;15.25;59.90
61113;BME280;47184;57.998;56.184;2022-08-16T03:26:10;101086.50;;;15.31;59.96
61113;BME280;47184;57.998;56.184;2022-08-16T03:28:36;101012.94;;;14.98;59.71
61113;BME280;47184;57.998;56.184;2022-08-16T03:31:04;101045.06;;;15.29;59.40
61113;BME280;47184;57.998;56.184;2022-08-16T03:33:33;101070.19;;;15.51;59.25
61113;BME280;47184;57.998;56.184;2022-08-16T03:35:59;101065.53;;;15.53;58.84
61113;BME280;47184;57.998;56.184;2022-08-16T03:38:30;101068.84;;;15.55;59.01
61113;BME280;47184;57.998;56.184;2022-08-16T03:40:59;101073.88;;;15.66;58.79
61113;BME280;47184;57.998;56.184;2022-08-16T03:43:28;101073.22;;;15.72;58.71
61113;BME280;47184;57.998;56.184;2022-08-16T03:45:56;101076.84;;;15.79;58.46
61113;BME280;47184;57.998;56.184;2022-08-16T03:48:28;101078.53;;;15.89;58.25
61113;BME280;47184;57.998;56.184;2022-08-16T03:50:56;101075.47;;;16.00;58.15
61113;BME280;47184;57.998;56.184;2022-08-16T03:53:22;101070.50;;;16.05;57.84
61113;BME280;47184;57.998;56.184;2022-08-16T03:55:50;101066.63;;;16.16;57.81
61113;BME280;47184;57.998;56.184;2022-08-16T03:58:18;101078.78;;;16.18;57.75
61113;BME280;47184;57.998;56.184;2022-08-16T04:00:44;101073.13;;;16.21;57.51
61113;BME280;47184;57.998;56.184;2022-08-16T04:03:15;101046.84;;;16.10;57.46
61113;BME280;47184;57.998;56.184;2022-08-16T04:05:45;101078.56;;;16.36;57.15
61113;BME280;47184;57.998;56.184;2022-08-16T04:08:16;101066.22;;;16.43;56.90
61113;BME280;47184;57.998;56.184;2022-08-16T04:10:44;101019.84;;;16.13;56.96
61113;BME280;47184;57.998;56.184;2022-08-16T04:13:11;101039.25;;;16.38;56.63
61113;BME280;47184;57.998;56.184;2022-08-16T04:15:37;101069.78;;;16.67;56.61
61113;BME280;47184;57.998;56.184;2022-08-16T04:18:12;101049.56;;;16.72;56.22
61113;BME280;47184;57.998;56.184;2022-08-16T04:20:38;101050.50;;;16.88;56.17
61113;BME280;47184;57.998;56.184;2022-08-16T04:23:06;101057.75;;;17.02;55.80
61113;BME280;47184;57.998;56.184;2022-08-16T04:25:35;101047.06;;;17.02;55.77
61113;BME280;47184;57.998;56.184;2022-08-16T04:28:03;101055.94;;;17.25;55.69
61113;BME280;47184;57.998;56.184;2022-08-16T04:30:30;101064.53;;;17.36;55.50
61113;BME280;47184;57.998;56.184;2022-08-16T04:32:57;101064.16;;;17.39;55.54
61113;BME280;47184;57.998;56.184;2022-08-16T04:35:24;100987.53;;;17.01;55.32
61113;BME280;47184;57.998;56.184;2022-08-16T04:37:51;101050.38;;;17.50;55.45
61113;BME280;47184;57.998;56.184;2022-08-16T04:40:23;101018.69;;;17.47;55.16
61113;BME280;47184;57.998;56.184;2022-08-16T04:42:52;101035.94;;;17.59;55.08
61113;BME280;47184;57.998;56.184;2022-08-16T04:45:20;101059.44;;;17.87;54.87
61113;BME280;47184;57.998;56.184;2022-08-16T04:47:47;101018.25;;;17.58;54.75
61113;BME280;47184;57.998;56.184;2022-08-16T04:50:22;101059.19;;;17.96;54.93
61113;BME280;47184;57.998;56.184;2022-08-16T04:53:24;101056.50;;;18.11;54.56
61113;BME280;47184;57.998;56.184;2022-08-16T04:55:51;100989.41;;;17.76;54.38
61113;BME280;47184;57.998;56.184;2022-08-16T04:58:17;101044.25;;;18.17;54.45
61113;BME280;47184;57.998;56.184;2022-08-16T05:00:45;101034.47;;;18.24;53.92
61113;BME280;47184;57.998;56.184;2022-08-16T05:03:18;101039.63;;;18.25;54.20
61113;BME280;47184;57.998;56.184;2022-08-16T05:05:47;101047.25;;;18.43;54.20
61113;BME280;47184;57.998;56.184;2022-08-16T05:08:17;101038.69;;;18.48;53.97
61113;BME280;47184;57.998;56.184;2022-08-16T05:10:49;101036.91;;;18.55;53.59
61113;BME280;47184;57.998;56.184;2022-08-16T05:13:16;101040.09;;;18.65;53.26
61113;BME280;47184;57.998;56.184;2022-08-16T05:15:46;100992.84;;;18.51;53.06
61113;BME280;47184;57.998;56.184;2022-08-16T05:18:13;101042.88;;;18.87;52.97
61113;BME280;47184;57.998;56.184;2022-08-16T05:20:47;101051.03;;;19.00;52.75
61113;BME280;47184;57.998;56.184;2022-08-16T05:23:13;101037.97;;;19.12;52.54
61113;BME280;47184;57.998;56.184;2022-08-16T05:25:42;101033.75;;;19.24;52.40
61113;BME280;47184;57.998;56.184;2022-08-16T05:28:09;101029.84;;;19.26;52.25
61113;BME280;47184;57.998;56.184;2022-08-16T05:30:38;101044.66;;;19.44;51.93
61113;BME280;47184;57.998;56.184;2022-08-16T05:33:12;101025.91;;;19.44;51.64
61113;BME280;47184;57.998;56.184;2022-08-16T05:35:38;101006.34;;;19.43;51.47
61113;BME280;47184;57.998;56.184;2022-08-16T05:38:11;101031.53;;;19.77;51.17
61113;BME280;47184;57.998;56.184;2022-08-16T05:40:37;101037.25;;;20.02;50.62
61113;BME280;47184;57.998;56.184;2022-08-16T05:43:03;101011.53;;;20.14;50.37
61113;BME280;47184;57.998;56.184;2022-08-16T05:45:31;101039.63;;;20.60;49.59
61113;BME280;47184;57.998;56.184;2022-08-16T05:48:01;101022.63;;;21.07;48.86
61113;BME280;47184;57.998;56.184;2022-08-16T05:50:50;101035.06;;;21.61;47.69
61113;BME280;47184;57.998;56.184;2022-08-16T05:53:17;101032.09;;;22.09;46.64
61113;BME280;47184;57.998;56.184;2022-08-16T05:55:59;101029.94;;;22.38;45.90
61113;BME280;47184;57.998;56.184;2022-08-16T05:58:26;101026.22;;;22.77;45.13
61113;BME280;47184;57.998;56.184;2022-08-16T06:00:54;101013.22;;;23.31;44.05
61113;BME280;47184;57.998;56.184;2022-08-16T06:03:21;101017.09;;;23.66;42.52
61113;BME280;47184;57.998;56.184;2022-08-16T06:06:00;101020.22;;;24.07;41.40
61113;BME280;47184;57.998;56.184;2022-08-16T06:08:26;100983.63;;;24.29;40.56
61113;BME280;47184;57.998;56.184;2022-08-16T06:10:53;101009.09;;;24.82;39.57
61113;BME280;47184;57.998;56.184;2022-08-16T06:13:20;101012.56;;;25.01;38.92
61113;BME280;47184;57.998;56.184;2022-08-16T06:15:46;101009.47;;;25.27;38.40
61113;BME280;47184;57.998;56.184;2022-08-16T06:18:17;100967.38;;;25.66;37.57
61113;BME280;47184;57.998;56.184;2022-08-16T06:20:46;100961.75;;;26.20;36.70
61113;BME280;47184;57.998;56.184;2022-08-16T06:23:19;100998.22;;;27.32;35.72
61113;BME280;47184;57.998;56.184;2022-08-16T06:25:55;100973.13;;;27.41;34.97
61113;BME280;47184;57.998;56.184;2022-08-16T06:28:23;101001.97;;;27.64;34.24
61113;BME280;47184;57.998;56.184;2022-08-16T06:30:49;100999.91;;;27.55;34.13
61113;BME280;47184;57.998;56.184;2022-08-16T06:33:17;100998.75;;;27.51;34.75
61113;BME280;47184;57.998;56.184;2022-08-16T06:35:43;100992.75;;;27.65;33.98
61113;BME280;47184;57.998;56.184;2022-08-16T06:38:11;100998.41;;;27.81;33.20
61113;BME280;47184;57.998;56.184;2022-08-16T06:40:38;101003.72;;;28.14;32.69
61113;BME280;47184;57.998;56.184;2022-08-16T06:43:04;100944.50;;;28.11;32.23
61113;BME280;47184;57.998;56.184;2022-08-16T06:45:38;100926.63;;;28.37;31.86
61113;BME280;47184;57.998;56.184;2022-08-16T06:48:11;100989.44;;;29.32;30.99
61113;BME280;47184;57.998;56.184;2022-08-16T06:50:37;100960.31;;;29.33;30.66
61113;BME280;47184;57.998;56.184;2022-08-16T06:53:06;100967.47;;;29.44;30.68
61113;BME280;47184;57.998;56.184;2022-08-16T06:55:35;100939.66;;;29.32;30.52
61113;BME280;47184;57.998;56.184;2022-08-16T06:58:07;100949.94;;;29.25;30.20
61113;BME280;47184;57.998;56.184;2022-08-16T07:00:34;100926.03;;;29.32;30.01
61113;BME280;47184;57.998;56.184;2022-08-16T07:03:05;100907.16;;;29.57;29.75
61113;BME280;47184;57.998;56.184;2022-08-16T07:05:35;100983.69;;;30.19;29.27
61113;BME280;47184;57.998;56.184;2022-08-16T07:08:08;100963.59;;;30.50;28.98
61113;BME280;47184;57.998;56.184;2022-08-16T07:10:35;100954.91;;;30.58;28.95
61113;BME280;47184;57.998;56.184;2022-08-16T07:13:01;100949.47;;;30.74;28.63
61113;BME280;47184;57.998;56.184;2022-08-16T07:15:28;100963.09;;;30.74;28.76
61113;BME280;47184;57.998;56.184;2022-08-16T07:18:13;100955.44;;;30.55;29.21
61113;BME280;47184;57.998;56.184;2022-08-16T07:20:41;100928.47;;;31.15;28.45
61113;BME280;47184;57.998;56.184;2022-08-16T07:23:10;100948.00;;;31.63;27.85
61113;BME280;47184;57.998;56.184;2022-08-16T07:25:43;100949.00;;;32.87;26.93
61113;BME280;47184;57.998;56.184;2022-08-16T07:28:16;100896.75;;;32.49;26.11
61113;BME280;47184;57.998;56.184;2022-08-16T07:30:44;100927.44;;;32.41;26.84
61113;BME280;47184;57.998;56.184;2022-08-16T07:33:17;100938.59;;;32.54;26.75
61113;BME280;47184;57.998;56.184;2022-08-16T07:35:44;100941.28;;;32.94;26.76
61113;BME280;47184;57.998;56.184;2022-08-16T07:38:12;100949.06;;;33.40;25.71
61113;BME280;47184;57.998;56.184;2022-08-16T07:40:50;100933.50;;;33.06;25.50
61113;BME280;47184;57.998;56.184;2022-08-16T07:43:16;100936.31;;;32.67;26.15
61113;BME280;47184;57.998;56.184;2022-08-16T07:45:42;100933.84;;;32.65;25.82
61113;BME280;47184;57.998;56.184;2022-08-16T07:48:09;100938.78;;;32.97;25.91
61113;BME280;47184;57.998;56.184;2022-08-16T07:50:39;100937.38;;;32.71;25.92
61113;BME280;47184;57.998;56.184;2022-08-16T07:53:06;100921.13;;;32.50;26.02
61113;BME280;47184;57.998;56.184;2022-08-16T07:55:33;100934.69;;;32.61;25.52
61113;BME280;47184;57.998;56.184;2022-08-16T07:57:59;100924.41;;;32.47;25.86
61113;BME280;47184;57.998;56.184;2022-08-16T08:00:25;100905.44;;;32.95;25.58
61113;BME280;47184;57.998;56.184;2022-08-16T08:02:51;100918.94;;;33.64;24.69
61113;BME280;47184;57.998;56.184;2022-08-16T08:05:22;100916.50;;;33.62;24.94
61113;BME280;47184;57.998;56.184;2022-08-16T08:07:50;100914.38;;;33.30;25.35
61113;BME280;47184;57.998;56.184;2022-08-16T08:10:22;100889.44;;;32.78;25.46
61113;BME280;47184;57.998;56.184;2022-08-16T08:12:51;100885.41;;;32.66;25.42
61113;BME280;47184;57.998;56.184;2022-08-16T08:15:21;100883.38;;;33.11;25.32
61113;BME280;47184;57.998;56.184;2022-08-16T08:17:47;100893.91;;;32.98;25.38
61113;BME280;47184;57.998;56.184;2022-08-16T08:20:20;100905.63;;;31.86;26.22
61113;BME280;47184;57.998;56.184;2022-08-16T08:22:47;100901.47;;;30.93;27.39
61113;BME280;47184;57.998;56.184;2022-08-16T08:25:14;100883.91;;;30.13;28.65
61113;BME280;47184;57.998;56.184;2022-08-16T08:27:41;100903.34;;;30.57;28.12
61113;BME280;47184;57.998;56.184;2022-08-16T08:30:08;100891.03;;;31.41;27.74
61113;BME280;47184;57.998;56.184;2022-08-16T08:32:35;100875.38;;;32.56;26.36
61113;BME280;47184;57.998;56.184;2022-08-16T08:35:04;100885.63;;;33.57;25.16
61113;BME280;47184;57.998;56.184;2022-08-16T08:37:34;100870.38;;;32.97;25.53
61113;BME280;47184;57.998;56.184;2022-08-16T08:40:07;100904.13;;;32.88;26.17
61113;BME280;47184;57.998;56.184;2022-08-16T08:42:39;100864.88;;;32.34;25.90
61113;BME280;47184;57.998;56.184;2022-08-16T08:45:13;100901.53;;;31.89;27.04
61113;BME280;47184;57.998;56.184;2022-08-16T08:47:42;100903.63;;;31.17;27.87
61113;BME280;47184;57.998;56.184;2022-08-16T08:50:09;100892.66;;;30.09;29.29
61113;BME280;47184;57.998;56.184;2022-08-16T08:52:35;100891.81;;;29.41;29.99
61113;BME280;47184;57.998;56.184;2022-08-16T08:55:09;100876.00;;;30.06;29.61
61113;BME280;47184;57.998;56.184;2022-08-16T08:57:40;100881.38;;;32.19;27.60
61113;BME280;47184;57.998;56.184;2022-08-16T09:00:23;100879.06;;;33.95;25.20
61113;BME280;47184;57.998;56.184;2022-08-16T09:02:53;100886.06;;;35.37;23.72
61113;BME280;47184;57.998;56.184;2022-08-16T09:05:21;100883.06;;;35.89;22.97
61113;BME280;47184;57.998;56.184;2022-08-16T09:07:51;100879.97;;;34.29;24.34
61113;BME280;47184;57.998;56.184;2022-08-16T09:10:19;100865.69;;;32.69;26.10
61113;BME280;47184;57.998;56.184;2022-08-16T09:12:46;100888.41;;;32.30;26.44
61113;BME280;47184;57.998;56.184;2022-08-16T09:15:21;100826.31;;;32.01;27.52
61113;BME280;47184;57.998;56.184;2022-08-16T09:17:48;100867.25;;;32.80;26.74
61113;BME280;47184;57.998;56.184;2022-08-16T09:20:22;100881.66;;;33.87;25.23
61113;BME280;47184;57.998;56.184;2022-08-16T09:22:50;100882.28;;;35.06;23.76
61113;BME280;47184;57.998;56.184;2022-08-16T09:25:16;100896.00;;;34.73;23.60
61113;BME280;47184;57.998;56.184;2022-08-16T09:27:43;100815.78;;;33.97;24.69
61113;BME280;47184;57.998;56.184;2022-08-16T09:30:10;100873.00;;;34.55;24.42
61113;BME280;47184;57.998;56.184;2022-08-16T09:32:36;100844.75;;;35.01;24.00
61113;BME280;47184;57.998;56.184;2022-08-16T09:35:03;100885.56;;;36.35;22.91
61113;BME280;47184;57.998;56.184;2022-08-16T09:37:31;100879.19;;;36.93;22.57
61113;BME280;47184;57.998;56.184;2022-08-16T09:39:58;100882.75;;;36.27;22.60
61113;BME280;47184;57.998;56.184;2022-08-16T09:42:26;100835.78;;;34.95;23.90
61113;BME280;47184;57.998;56.184;2022-08-16T09:44:53;100841.66;;;33.67;25.05
61113;BME280;47184;57.998;56.184;2022-08-16T09:47:19;100876.41;;;32.94;26.17
61113;BME280;47184;57.998;56.184;2022-08-16T09:49:45;100811.28;;;31.99;26.75
61113;BME280;47184;57.998;56.184;2022-08-16T09:52:11;100812.09;;;31.50;27.70
61113;BME280;47184;57.998;56.184;2022-08-16T09:54:38;100811.25;;;31.54;27.88
61113;BME280;47184;57.998;56.184;2022-08-16T09:57:05;100873.91;;;33.51;26.49
61113;BME280;47184;57.998;56.184;2022-08-16T09:59:32;100883.59;;;35.77;24.24
61113;BME280;47184;57.998;56.184;2022-08-16T10:01:58;100853.81;;;35.57;23.75
61113;BME280;47184;57.998;56.184;2022-08-16T10:04:26;100821.00;;;34.31;24.68
61113;BME280;47184;57.998;56.184;2022-08-16T10:06:56;100876.28;;;33.34;25.60
61113;BME280;47184;57.998;56.184;2022-08-16T10:09:24;100853.81;;;32.15;26.46
61113;BME280;47184;57.998;56.184;2022-08-16T10:11:50;100870.28;;;31.35;27.92
61113;BME280;47184;57.998;56.184;2022-08-16T10:14:34;100879.34;;;30.49;28.95
61113;BME280;47184;57.998;56.184;2022-08-16T10:17:04;100805.84;;;29.45;30.21
61113;BME280;47184;57.998;56.184;2022-08-16T10:19:32;100866.00;;;29.49;30.94
61113;BME280;47184;57.998;56.184;2022-08-16T10:21:58;100879.41;;;30.79;29.68
61113;BME280;47184;57.998;56.184;2022-08-16T10:24:25;100873.28;;;32.77;27.62
61113;BME280;47184;57.998;56.184;2022-08-16T10:26:51;100875.28;;;34.81;25.73
61113;BME280;47184;57.998;56.184;2022-08-16T10:29:18;100870.06;;;35.81;24.09
61113;BME280;47184;57.998;56.184;2022-08-16T10:31:44;100880.34;;;35.75;24.24
61113;BME280;47184;57.998;56.184;2022-08-16T10:34:10;100845.38;;;36.70;23.54
61113;BME280;47184;57.998;56.184;2022-08-16T10:36:37;100884.91;;;37.46;22.48
61113;BME280;47184;57.998;56.184;2022-08-16T10:39:04;100871.78;;;37.51;22.25
61113;BME280;47184;57.998;56.184;2022-08-16T10:41:31;100869.94;;;37.95;21.94
61113;BME280;47184;57.998;56.184;2022-08-16T10:43:57;100868.72;;;37.04;22.52
61113;BME280;47184;57.998;56.184;2022-08-16T10:46:24;100858.38;;;36.11;23.21
61113;BME280;47184;57.998;56.184;2022-08-16T10:48:50;100848.97;;;35.76;23.37
61113;BME280;47184;57.998;56.184;2022-08-16T10:51:17;100850.00;;;34.97;24.41
61113;BME280;47184;57.998;56.184;2022-08-16T10:53:43;100852.50;;;33.77;25.31
61113;BME280;47184;57.998;56.184;2022-08-16T10:56:10;100814.66;;;32.59;26.26
61113;BME280;47184;57.998;56.184;2022-08-16T10:58:38;100855.16;;;32.13;27.18
61113;BME280;47184;57.998;56.184;2022-08-16T11:01:07;100799.59;;;31.39;27.76
61113;BME280;47184;57.998;56.184;2022-08-16T11:03:34;100855.56;;;31.36;28.82
61113;BME280;47184;57.998;56.184;2022-08-16T11:06:02;100773.06;;;30.54;29.27
61113;BME280;47184;57.998;56.184;2022-08-16T11:08:29;100851.84;;;30.71;29.61
61113;BME280;47184;57.998;56.184;2022-08-16T11:10:56;100858.66;;;30.43;30.07
61113;BME280;47184;57.998;56.184;2022-08-16T11:13:24;100841.16;;;30.13;30.67
61113;BME280;47184;57.998;56.184;2022-08-16T11:15:52;100849.38;;;30.18;30.75
61113;BME280;47184;57.998;56.184;2022-08-16T11:18:20;100853.88;;;31.45;29.52
61113;BME280;47184;57.998;56.184;2022-08-16T11:20:47;100832.63;;;33.66;27.23
61113;BME280;47184;57.998;56.184;2022-08-16T11:23:13;100852.56;;;35.63;25.50
61113;BME280;47184;57.998;56.184;2022-08-16T11:25:40;100826.81;;;36.85;23.70
61113;BME280;47184;57.998;56.184;2022-08-16T11:28:07;100853.84;;;37.80;22.46
61113;BME280;47184;57.998;56.184;2022-08-16T11:30:34;100830.09;;;36.64;22.76
61113;BME280;47184;57.998;56.184;2022-08-16T11:33:00;100842.41;;;36.58;23.31
61113;BME280;47184;57.998;56.184;2022-08-16T11:35:29;100844.91;;;37.83;21.92
61113;BME280;47184;57.998;56.184;2022-08-16T11:37:59;100836.97;;;39.36;20.64
61113;BME280;47184;57.998;56.184;2022-08-16T11:40:28;100839.03;;;40.44;19.75
61113;BME280;47184;57.998;56.184;2022-08-16T11:42:56;100833.44;;;39.98;20.15
61113;BME280;47184;57.998;56.184;2022-08-16T11:45:23;100820.91;;;37.75;20.82
61113;BME280;47184;57.998;56.184;2022-08-16T11:47:49;100812.94;;;36.14;22.20
61113;BME280;47184;57.998;56.184;2022-08-16T11:50:16;100827.31;;;35.75;23.05
61113;BME280;47184;57.998;56.184;2022-08-16T11:52:42;100836.94;;;36.67;22.05
61113;BME280;47184;57.998;56.184;2022-08-16T11:55:10;100834.53;;;37.71;21.18
61113;BME280;47184;57.998;56.184;2022-08-16T11:57:38;100818.88;;;38.79;20.39
61113;BME280;47184;57.998;56.184;2022-08-16T12:00:07;100826.97;;;39.94;19.51
61113;BME280;47184;57.998;56.184;2022-08-16T12:02:37;100836.00;;;40.82;18.61
61113;BME280;47184;57.998;56.184;2022-08-16T12:05:08;100790.63;;;41.23;18.29
61113;BME280;47184;57.998;56.184;2022-08-16T12:07:35;100835.09;;;41.92;17.81
61113;BME280;47184;57.998;56.184;2022-08-16T12:10:06;100767.97;;;41.86;17.46
61113;BME280;47184;57.998;56.184;2022-08-16T12:12:32;100801.16;;;41.30;17.37
61113;BME280;47184;57.998;56.184;2022-08-16T12:15:00;100802.06;;;41.22;17.74
61113;BME280;47184;57.998;56.184;2022-08-16T12:17:29;100816.03;;;41.38;17.18
61113;BME280;47184;57.998;56.184;2022-08-16T12:19:56;100778.31;;;40.72;17.82
61113;BME280;47184;57.998;56.184;2022-08-16T12:22:23;100821.34;;;40.03;18.39
61113;BME280;47184;57.998;56.184;2022-08-16T12:24:50;100826.22;;;38.58;19.67
61113;BME280;47184;57.998;56.184;2022-08-16T12:27:16;100813.97;;;37.95;20.34
61113;BME280;47184;57.998;56.184;2022-08-16T12:29:43;100787.81;;;38.35;19.94
61113;BME280;47184;57.998;56.184;2022-08-16T12:32:09;100821.63;;;38.79;19.52
61113;BME280;47184;57.998;56.184;2022-08-16T12:34:35;100833.31;;;38.76;19.43
61113;BME280;47184;57.998;56.184;2022-08-16T12:37:02;100810.75;;;38.83;19.40
61113;BME280;47184;57.998;56.184;2022-08-16T12:39:29;100823.69;;;39.50;19.15
61113;BME280;47184;57.998;56.184;2022-08-16T12:41:55;100825.66;;;39.92;18.62
61113;BME280;47184;57.998;56.184;2022-08-16T12:44:22;100841.88;;;39.81;18.83
61113;BME280;47184;57.998;56.184;2022-08-16T12:46:48;100828.59;;;39.15;19.53
61113;BME280;47184;57.998;56.184;2022-08-16T12:49:34;100825.41;;;38.57;20.47
61113;BME280;47184;57.998;56.184;2022-08-16T12:52:00;100830.63;;;38.41;20.56